createdAt,value
2018-04-25T00:02:01.675Z,63.00
2018-04-25T00:04:29.123Z,63.60
2018-04-25T00:06:56.586Z,63.70
2018-04-25T00:09:24.043Z,63.40
2018-04-25T00:11:51.499Z,64.30
2018-04-25T00:14:19.011Z,65.80
2018-04-25T00:16:47.230Z,64.40
2018-04-25T00:19:14.704Z,64.40
2018-04-25T00:21:42.158Z,64.90
2018-04-25T00:24:09.604Z,65.50
2018-04-25T00:26:37.086Z,65.40
2018-04-25T00:29:04.538Z,65.60
2018-04-25T00:31:32.815Z,65.50
2018-04-25T00:34:00.251Z,65.30
2018-04-25T00:36:27.720Z,65.50
2018-04-25T00:38:55.164Z,65.20
2018-04-25T00:41:22.625Z,65.20
2018-04-25T00:43:50.082Z,65.70
2018-04-25T00:46:17.532Z,65.80
2018-04-25T00:48:44.989Z,65.50
2018-04-25T00:51:12.449Z,65.20
2018-04-25T00:53:39.898Z,65.50
2018-04-25T00:56:07.347Z,65.40
2018-04-25T00:58:34.807Z,65.30
2018-04-25T01:01:02.263Z,66.00
2018-04-25T01:03:29.706Z,65.60
2018-04-25T01:05:57.172Z,64.90
2018-04-25T01:08:24.611Z,65.30
2018-04-25T01:10:52.762Z,66.00
2018-04-25T01:13:20.201Z,66.70
2018-04-25T01:15:47.665Z,65.80
2018-04-25T01:18:15.112Z,64.60
2018-04-25T01:20:42.552Z,63.90
2018-04-25T01:23:09.995Z,63.70
2018-04-25T01:25:40.419Z,64.50
2018-04-25T01:28:22.504Z,64.80
2018-04-25T01:30:50.751Z,64.40
2018-04-25T01:33:22.924Z,63.60
2018-04-25T01:35:57.655Z,63.70
2018-04-25T01:38:27.336Z,63.60
2018-04-25T01:40:54.791Z,63.60
2018-04-25T01:43:22.253Z,64.40
2018-04-25T01:49:06.537Z,67.10
2018-04-25T01:51:45.767Z,67.80
2018-04-25T01:54:25.841Z,67.80
2018-04-25T01:57:05.889Z,68.20
2018-04-25T01:59:45.167Z,68.00
2018-04-25T02:02:12.142Z,68.30
2018-04-25T02:04:39.595Z,68.30
2018-04-25T02:07:07.066Z,68.20
2018-04-25T02:09:35.285Z,68.50
2018-04-25T02:12:02.738Z,68.50
2018-04-25T02:14:30.203Z,68.60
2018-04-25T02:16:57.657Z,68.10
2018-04-25T02:19:25.108Z,68.10
2018-04-25T02:21:52.559Z,68.00
2018-04-25T02:24:20.007Z,67.70
2018-04-25T02:26:47.461Z,67.00
2018-04-25T02:29:14.920Z,67.50
2018-04-25T02:31:42.372Z,67.50
2018-04-25T02:34:09.825Z,66.60
2018-04-25T02:36:37.281Z,66.80
2018-04-25T02:39:05.499Z,68.60
2018-04-25T02:41:32.951Z,68.60
2018-04-25T02:44:00.403Z,67.10
2018-04-25T02:46:28.492Z,66.40
2018-04-25T02:48:55.951Z,67.90
2018-04-25T02:51:23.401Z,66.70
2018-04-25T02:53:50.873Z,66.10
2018-04-25T02:56:18.327Z,66.20
2018-04-25T02:58:45.787Z,66.10
2018-04-25T03:01:13.254Z,66.20
2018-04-25T03:03:40.712Z,66.50
2018-04-25T03:06:08.160Z,66.60
2018-04-25T03:08:35.619Z,66.70
2018-04-25T03:11:03.064Z,67.10
2018-04-25T03:13:30.529Z,67.90
2018-04-25T03:15:58.009Z,68.00
2018-04-25T03:18:26.235Z,68.80
2018-04-25T03:20:53.675Z,67.50
2018-04-25T03:23:21.127Z,68.00
2018-04-25T03:25:48.580Z,76.00
2018-04-25T03:28:16.044Z,68.00
2018-04-25T03:30:43.507Z,68.50
2018-04-25T03:33:10.955Z,69.30
2018-04-25T03:35:38.422Z,68.70
2018-04-25T03:38:05.877Z,69.00
2018-04-25T03:40:33.336Z,69.50
2018-04-25T03:43:00.787Z,69.40
2018-04-25T03:45:28.249Z,68.80
2018-04-25T03:47:55.699Z,69.20
2018-04-25T03:50:23.159Z,69.70
2018-04-25T03:52:50.608Z,70.70
2018-04-25T03:55:18.052Z,70.40
2018-04-25T03:57:45.495Z,68.60
2018-04-25T04:00:12.996Z,68.50
2018-04-25T04:02:40.448Z,69.00
2018-04-25T04:05:07.909Z,68.40
2018-04-25T04:07:35.377Z,68.00
2018-04-25T04:10:02.834Z,68.10
2018-04-25T04:12:30.288Z,67.90
2018-04-25T04:14:57.746Z,67.50
2018-04-25T04:17:25.200Z,67.80
2018-04-25T04:19:52.657Z,69.20
2018-04-25T04:22:20.112Z,73.00
2018-04-25T04:24:47.606Z,70.40
2018-04-25T04:27:15.031Z,70.00
2018-04-25T04:29:42.494Z,71.40
2018-04-25T04:32:09.954Z,70.70
2018-04-25T04:34:37.420Z,71.30
2018-04-25T04:37:04.877Z,71.40
2018-04-25T04:39:32.335Z,71.60
2018-04-25T04:41:59.798Z,71.60
2018-04-25T04:44:28.019Z,72.80
2018-04-25T04:46:55.480Z,72.20
2018-04-25T04:49:22.943Z,71.10
2018-04-25T04:51:50.400Z,70.70
2018-04-25T04:54:17.868Z,70.40
2018-04-25T04:56:45.330Z,69.90
2018-04-25T04:59:12.782Z,70.50
2018-04-25T05:01:40.992Z,68.30
2018-04-25T05:04:09.207Z,69.10
2018-04-25T05:06:36.669Z,69.90
2018-04-25T05:09:04.127Z,69.20
2018-04-25T05:11:31.572Z,69.10
2018-04-25T05:13:59.035Z,69.10
2018-04-25T05:16:26.488Z,69.70
2018-04-25T05:18:53.941Z,70.80
2018-04-25T05:21:21.396Z,70.40
2018-04-25T05:23:48.847Z,72.60
2018-04-25T05:26:16.292Z,71.50
2018-04-25T05:28:44.499Z,70.80
2018-04-25T05:31:11.971Z,70.70
2018-04-25T05:33:39.418Z,70.70
2018-04-25T05:36:06.891Z,70.70
2018-04-25T05:38:34.380Z,70.90
2018-04-25T05:41:01.780Z,70.80
2018-04-25T05:43:29.236Z,71.20
2018-04-25T05:45:56.750Z,71.00
2018-04-25T05:48:24.145Z,70.90
2018-04-25T05:50:51.600Z,70.20
2018-04-25T05:53:19.096Z,69.40
2018-04-25T05:55:46.514Z,68.90
2018-04-25T05:58:13.982Z,67.40
2018-04-25T06:00:41.545Z,66.40
2018-04-25T06:03:09.007Z,63.80
2018-04-25T06:05:36.461Z,63.00
2018-04-25T06:08:04.687Z,61.50
2018-04-25T06:10:32.895Z,59.50
2018-04-25T06:13:00.346Z,59.50
2018-04-25T06:15:27.795Z,58.60
2018-04-25T06:17:55.245Z,57.40
2018-04-25T06:20:23.380Z,56.40
2018-04-25T06:22:50.785Z,55.30
2018-04-25T06:25:18.237Z,54.50
2018-04-25T06:27:45.706Z,53.30
2018-04-25T06:30:13.160Z,52.60
2018-04-25T06:32:40.610Z,52.90
2018-04-25T06:35:08.071Z,52.20
2018-04-25T06:37:35.533Z,52.20
2018-04-25T06:40:02.981Z,51.70
2018-04-25T06:42:30.441Z,52.00
2018-04-25T06:44:57.906Z,51.20
2018-04-25T06:47:25.360Z,50.30
2018-04-25T06:49:52.824Z,50.80
2018-04-25T06:52:20.267Z,49.60
2018-04-25T06:54:47.736Z,49.30
2018-04-25T06:57:15.175Z,48.60
2018-04-25T06:59:42.627Z,48.60
2018-04-25T07:02:10.071Z,48.60
2018-04-25T07:04:37.526Z,46.10
2018-04-25T07:07:05.736Z,44.60
2018-04-25T07:09:33.192Z,44.50
2018-04-25T07:12:00.641Z,44.20
2018-04-25T07:14:28.099Z,44.40
2018-04-25T07:16:55.547Z,44.10
2018-04-25T07:19:22.991Z,43.90
2018-04-25T07:21:50.445Z,42.80
2018-04-25T07:24:17.900Z,43.30
2018-04-25T07:26:45.350Z,43.90
2018-04-25T07:29:13.563Z,42.30
2018-04-25T07:31:41.020Z,42.20
2018-04-25T07:34:08.474Z,41.60
2018-04-25T07:36:35.928Z,41.30
2018-04-25T07:39:03.371Z,41.40
2018-04-25T07:41:30.850Z,40.00
2018-04-25T07:43:58.291Z,40.50
2018-04-25T07:46:25.748Z,41.80
2018-04-25T07:48:53.198Z,41.10
2018-04-25T07:51:20.717Z,41.20
2018-04-25T07:53:48.146Z,40.90
2018-04-25T07:56:15.613Z,41.60
2018-04-25T07:58:43.059Z,41.10
2018-04-25T08:01:10.509Z,40.30
2018-04-25T08:03:37.966Z,39.80
2018-04-25T08:06:05.458Z,40.40
2018-04-25T08:08:32.884Z,39.50
2018-04-25T08:11:00.346Z,40.30
2018-04-25T08:13:39.595Z,39.50
2018-04-25T08:16:19.035Z,38.10
2018-04-25T08:18:58.239Z,37.50
2018-04-25T08:21:39.503Z,37.40
2018-04-25T08:24:06.954Z,38.30
2018-04-25T08:26:34.412Z,36.90
2018-04-25T08:29:01.860Z,36.40
2018-04-25T08:31:29.308Z,36.70
2018-04-25T08:33:56.748Z,34.80
2018-04-25T08:36:24.203Z,34.70
2018-04-25T08:38:51.651Z,34.60
2018-04-25T08:41:19.091Z,36.40
2018-04-25T08:43:46.539Z,34.60
2018-04-25T08:46:13.987Z,34.80
2018-04-25T08:48:41.444Z,35.40
2018-04-25T08:51:08.901Z,34.10
2018-04-25T08:53:36.355Z,34.00
2018-04-25T08:56:03.795Z,35.00
2018-04-25T08:58:31.256Z,34.70
2018-04-25T09:00:58.704Z,34.50
2018-04-25T09:03:26.157Z,34.30
2018-04-25T09:05:53.658Z,34.10
2018-04-25T09:08:21.055Z,34.00
2018-04-25T09:10:48.507Z,35.10
2018-04-25T09:13:16.024Z,34.30
2018-04-25T09:15:44.171Z,32.70
2018-04-25T09:18:11.619Z,32.70
2018-04-25T09:20:39.074Z,33.30
2018-04-25T09:23:06.536Z,31.90
2018-04-25T09:25:33.988Z,32.20
2018-04-25T09:28:01.444Z,32.80
2018-04-25T09:30:28.895Z,32.40
2018-04-25T09:32:56.356Z,31.60
2018-04-25T09:35:23.812Z,32.30
2018-04-25T09:37:51.275Z,32.10
2018-04-25T09:40:18.728Z,33.50
2018-04-25T09:42:46.187Z,33.20
2018-04-25T09:45:13.638Z,30.60
2018-04-25T09:47:41.097Z,31.30
2018-04-25T09:50:08.543Z,31.10
2018-04-25T09:52:36.000Z,31.90
2018-04-25T09:55:03.459Z,31.30
2018-04-25T09:57:30.908Z,32.90
2018-04-25T09:59:58.356Z,32.60
2018-04-25T10:02:32.194Z,32.10
2018-04-25T10:04:59.640Z,32.00
2018-04-25T10:07:27.139Z,32.30
2018-04-25T10:09:54.600Z,31.70
2018-04-25T10:12:22.057Z,31.00
2018-04-25T10:14:49.504Z,31.60
2018-04-25T10:17:16.975Z,32.10
2018-04-25T10:19:44.417Z,31.40
2018-04-25T10:22:11.892Z,30.60
2018-04-25T10:24:39.340Z,32.00
2018-04-25T10:27:06.801Z,32.70
2018-04-25T10:29:37.163Z,29.90
2018-04-25T10:32:04.630Z,29.70
2018-04-25T10:34:32.084Z,29.60
2018-04-25T10:36:59.528Z,29.90
2018-04-25T10:39:26.977Z,29.40
2018-04-25T10:41:55.196Z,29.80
2018-04-25T10:44:22.652Z,29.80
2018-04-25T10:46:50.875Z,30.00
2018-04-25T10:49:19.088Z,30.70
2018-04-25T10:51:46.540Z,30.70
2018-04-25T10:54:13.992Z,30.60
2018-04-25T10:56:41.456Z,31.10
2018-04-25T10:59:08.909Z,30.00
2018-04-25T11:01:36.356Z,30.00
2018-04-25T11:04:03.803Z,29.60
2018-04-25T11:06:31.248Z,29.40
2018-04-25T11:08:59.461Z,31.10
2018-04-25T11:11:26.916Z,31.00
2018-04-25T11:13:54.369Z,30.30
2018-04-25T11:16:21.820Z,30.00
2018-04-25T11:18:49.272Z,30.10
2018-04-25T11:21:16.723Z,29.70
2018-04-25T11:23:44.180Z,30.00
2018-04-25T11:26:11.623Z,30.10
2018-04-25T11:28:39.195Z,43.90
2018-04-25T11:31:06.645Z,31.60
2018-04-25T11:33:34.127Z,30.20
2018-04-25T11:36:01.568Z,30.80
2018-04-25T11:38:29.028Z,31.00
2018-04-25T11:40:56.539Z,31.30
2018-04-25T11:43:23.987Z,30.80
2018-04-25T11:45:52.954Z,29.90
2018-04-25T11:48:20.400Z,29.80
2018-04-25T11:50:47.843Z,29.40
2018-04-25T11:53:15.308Z,31.30
2018-04-25T11:55:42.815Z,30.30
2018-04-25T11:58:10.275Z,30.60
2018-04-25T12:00:37.729Z,31.30
2018-04-25T12:03:05.185Z,32.00
2018-04-25T12:05:32.631Z,31.60
2018-04-25T12:08:00.088Z,30.90
2018-04-25T12:10:27.530Z,31.60
2018-04-25T12:12:54.992Z,30.80
2018-04-25T12:15:22.449Z,31.30
2018-04-25T12:17:49.907Z,31.60
2018-04-25T12:20:17.361Z,32.80
2018-04-25T12:22:45.304Z,33.00
2018-04-25T12:25:12.759Z,32.50
2018-04-25T12:27:40.215Z,32.80
2018-04-25T12:30:07.671Z,31.30
2018-04-25T12:32:35.120Z,32.00
2018-04-25T12:35:02.582Z,32.80
2018-04-25T12:37:30.031Z,33.40
2018-04-25T12:39:57.483Z,33.60
2018-04-25T12:42:24.935Z,33.20
2018-04-25T12:44:52.390Z,33.60
2018-04-25T12:47:19.885Z,33.80
2018-04-25T12:49:48.059Z,33.90
2018-04-25T12:52:15.508Z,33.90
2018-04-25T12:54:42.952Z,33.50
2018-04-25T12:57:10.408Z,35.00
2018-04-25T12:59:37.866Z,33.60
2018-04-25T13:02:05.307Z,34.10
2018-04-25T13:04:32.768Z,34.50
2018-04-25T13:07:00.227Z,34.00
2018-04-25T13:09:27.675Z,32.70
2018-04-25T13:11:55.130Z,33.30
2018-04-25T13:14:23.343Z,33.30
2018-04-25T13:16:50.782Z,33.30
2018-04-25T13:19:18.240Z,32.00
2018-04-25T13:21:45.682Z,31.50
2018-04-25T13:24:13.139Z,31.40
2018-04-25T13:26:40.588Z,31.00
2018-04-25T13:29:08.041Z,31.20
2018-04-25T13:31:35.529Z,30.80
2018-04-25T13:34:02.984Z,30.60
2018-04-25T13:36:30.436Z,30.30
2018-04-25T13:38:57.891Z,30.70
2018-04-25T13:41:25.352Z,31.80
2018-04-25T13:43:52.819Z,30.80
2018-04-25T13:46:20.259Z,30.80
2018-04-25T13:48:48.487Z,31.40
2018-04-25T13:51:15.944Z,31.40
2018-04-25T13:53:43.399Z,32.30
2018-04-25T13:56:10.838Z,31.70
2018-04-25T13:58:38.299Z,31.50
2018-04-25T14:01:05.751Z,32.10
2018-04-25T14:03:33.212Z,30.90
2018-04-25T14:06:00.727Z,31.50
2018-04-25T14:08:28.122Z,32.20
2018-04-25T14:10:55.576Z,31.60
2018-04-25T14:13:23.027Z,32.50
2018-04-25T14:15:50.481Z,32.70
2018-04-25T14:18:17.927Z,32.40
2018-04-25T14:20:45.373Z,32.40
2018-04-25T14:23:12.825Z,33.30
2018-04-25T14:25:40.267Z,32.10
2018-04-25T14:28:07.787Z,36.90
2018-04-25T14:30:35.168Z,32.60
2018-04-25T14:33:03.376Z,32.90
2018-04-25T14:35:30.845Z,32.80
2018-04-25T14:37:58.297Z,32.90
2018-04-25T14:40:25.768Z,33.80
2018-04-25T14:42:53.974Z,34.30
2018-04-25T14:45:22.432Z,33.90
2018-04-25T14:47:49.879Z,33.90
2018-04-25T14:50:17.329Z,34.10
2018-04-25T14:52:44.778Z,33.40
2018-04-25T14:55:12.301Z,34.10
2018-04-25T14:57:39.676Z,34.20
2018-04-25T15:00:07.123Z,34.40
2018-04-25T15:02:34.569Z,34.50
2018-04-25T15:05:02.024Z,34.70
2018-04-25T15:07:29.471Z,34.50
2018-04-25T15:09:57.683Z,34.60
2018-04-25T15:12:25.132Z,34.50
2018-04-25T15:14:52.586Z,34.70
2018-04-25T15:17:20.039Z,35.10
2018-04-25T15:19:47.543Z,35.10
2018-04-25T15:22:14.931Z,35.50
2018-04-25T15:24:43.151Z,36.30
2018-04-25T15:27:10.613Z,36.30
2018-04-25T15:29:38.839Z,35.90
2018-04-25T15:32:06.287Z,35.90
2018-04-25T15:34:34.511Z,36.00
2018-04-25T15:37:01.971Z,36.10
2018-04-25T15:39:29.426Z,36.90
2018-04-25T15:41:56.873Z,36.00
2018-04-25T15:44:24.326Z,36.40
2018-04-25T15:46:51.776Z,36.30
2018-04-25T15:49:19.228Z,36.30
2018-04-25T15:51:46.684Z,35.90
2018-04-25T15:54:14.135Z,35.80
2018-04-25T15:56:42.494Z,37.10
2018-04-25T15:59:10.708Z,37.60
2018-04-25T16:01:38.164Z,36.90
2018-04-25T16:04:05.618Z,36.60
2018-04-25T16:06:33.065Z,36.80
2018-04-25T16:09:00.511Z,37.00
2018-04-25T16:11:27.961Z,36.90
2018-04-25T16:13:55.407Z,36.90
2018-04-25T16:16:23.634Z,37.50
2018-04-25T16:18:51.080Z,37.50
2018-04-25T16:21:18.553Z,37.30
2018-04-25T16:23:46.002Z,37.80
2018-04-25T16:26:13.454Z,38.00
2018-04-25T16:28:40.907Z,37.40
2018-04-25T16:31:08.446Z,37.00
2018-04-25T16:33:35.836Z,37.40
2018-04-25T16:36:04.078Z,38.30
2018-04-25T16:38:31.523Z,38.30
2018-04-25T16:40:59.743Z,38.00
2018-04-25T16:43:27.192Z,38.00
2018-04-25T16:45:54.648Z,37.80
2018-04-25T16:48:22.105Z,38.20
2018-04-25T16:50:49.567Z,38.50
2018-04-25T16:53:17.041Z,39.20
2018-04-25T16:55:44.504Z,38.60
2018-04-25T16:58:11.974Z,38.30
2018-04-25T17:00:39.421Z,38.40
2018-04-25T17:03:06.876Z,38.40
2018-04-25T17:05:34.351Z,38.40
2018-04-25T17:08:02.575Z,38.80
2018-04-25T17:10:30.021Z,38.80
2018-04-25T17:12:57.467Z,39.00
2018-04-25T17:15:24.917Z,39.10
2018-04-25T17:17:52.368Z,39.00
2018-04-25T17:20:19.824Z,39.10
2018-04-25T17:22:47.279Z,39.10
2018-04-25T17:25:14.732Z,39.50
2018-04-25T17:27:42.182Z,43.10
2018-04-25T17:30:10.388Z,39.60
2018-04-25T17:32:37.843Z,39.60
2018-04-25T17:35:05.300Z,39.60
2018-04-25T17:37:32.755Z,40.00
2018-04-25T17:40:00.207Z,40.50
2018-04-25T17:42:27.663Z,40.60
2018-04-25T17:44:55.128Z,40.50
2018-04-25T17:47:22.575Z,40.70
2018-04-25T17:49:50.047Z,40.90
2018-04-25T17:52:17.534Z,40.80
2018-04-25T17:54:44.984Z,41.00
2018-04-25T17:57:12.436Z,41.10
2018-04-25T17:59:39.879Z,41.50
2018-04-25T18:02:07.341Z,41.80
2018-04-25T18:04:34.782Z,42.00
2018-04-25T18:07:02.231Z,41.80
2018-04-25T18:09:29.682Z,42.00
2018-04-25T18:11:57.129Z,42.00
2018-04-25T18:14:24.579Z,42.00
2018-04-25T18:16:52.040Z,42.30
2018-04-25T18:19:19.475Z,42.50
2018-04-25T18:21:46.927Z,43.00
2018-04-25T18:24:14.392Z,42.80
2018-04-25T18:26:42.605Z,43.30
2018-04-25T18:29:10.058Z,43.80
2018-04-25T18:31:37.512Z,43.60
2018-04-25T18:34:04.960Z,43.80
2018-04-25T18:36:32.417Z,43.60
2018-04-25T18:38:59.864Z,44.40
2018-04-25T18:41:27.326Z,43.40
2018-04-25T18:43:54.807Z,43.90
2018-04-25T18:46:22.231Z,43.70
2018-04-25T18:48:49.681Z,44.50
2018-04-25T18:51:17.898Z,44.70
2018-04-25T18:53:45.355Z,44.60
2018-04-25T18:56:12.817Z,44.60
2018-04-25T18:58:40.260Z,44.90
2018-04-25T19:01:07.716Z,45.40
2018-04-25T19:03:35.167Z,45.30
2018-04-25T19:06:02.636Z,45.30
2018-04-25T19:08:30.092Z,46.00
2018-04-25T19:10:57.548Z,48.70
2018-04-25T19:13:24.993Z,49.50
2018-04-25T19:15:52.453Z,49.80
2018-04-25T19:18:19.916Z,49.20
2018-04-25T19:20:47.363Z,50.10
2018-04-25T19:23:14.810Z,50.30
2018-04-25T19:25:42.256Z,50.70
2018-04-25T19:28:09.703Z,51.60
2018-04-25T19:30:37.152Z,52.10
2018-04-25T19:33:05.369Z,53.80
2018-04-25T19:35:32.829Z,53.70
2018-04-25T19:38:00.276Z,55.50
2018-04-25T19:40:27.731Z,57.30
2018-04-25T19:42:55.193Z,58.50
2018-04-25T19:45:22.664Z,62.00
2018-04-25T19:47:50.120Z,62.50
2018-04-25T19:50:17.584Z,63.80
2018-04-25T19:52:45.025Z,66.60
2018-04-25T19:55:12.482Z,67.70
2018-04-25T19:57:39.928Z,69.10
2018-04-25T20:00:07.376Z,70.00
2018-04-25T20:02:34.827Z,69.80
2018-04-25T20:05:04.185Z,70.50
2018-04-25T20:07:31.631Z,72.10
2018-04-25T20:09:59.081Z,71.40
2018-04-25T20:12:27.303Z,72.00
2018-04-25T20:14:59.292Z,72.90
2018-04-25T20:17:26.744Z,72.80
2018-04-25T20:19:54.206Z,73.30
2018-04-25T20:22:21.658Z,71.00
2018-04-25T20:24:49.113Z,71.90
2018-04-25T20:27:20.027Z,74.20
2018-04-25T20:29:48.333Z,77.00
2018-04-25T20:32:15.717Z,77.00
2018-04-25T20:34:43.169Z,76.60
2018-04-25T20:37:10.894Z,75.60
2018-04-25T20:39:38.461Z,75.30
2018-04-25T20:42:06.062Z,74.50
2018-04-25T20:44:33.525Z,75.50
2018-04-25T20:47:00.979Z,74.90
2018-04-25T20:49:28.434Z,75.60
2018-04-25T20:51:55.897Z,75.80
2018-04-25T20:54:23.348Z,75.70
2018-04-25T20:56:50.853Z,76.90
2018-04-25T20:59:18.268Z,76.80
2018-04-25T21:01:45.729Z,76.80
2018-04-25T21:04:13.181Z,77.80
2018-04-25T21:06:40.645Z,78.00
2018-04-25T21:09:08.099Z,77.80
2018-04-25T21:11:35.554Z,78.80
2018-04-25T21:14:03.013Z,79.10
2018-04-25T21:16:30.480Z,79.10
2018-04-25T21:18:57.920Z,74.90
2018-04-25T21:21:25.384Z,74.80
2018-04-25T21:23:53.003Z,74.90
2018-04-25T21:26:26.341Z,74.60
2018-04-25T21:28:54.703Z,75.20
2018-04-25T21:31:22.197Z,75.00
2018-04-25T21:33:52.525Z,75.10
2018-04-25T21:36:19.999Z,73.80
2018-04-25T21:38:47.455Z,73.50
2018-04-25T21:41:14.913Z,74.40
2018-04-25T21:43:42.373Z,74.90
2018-04-25T21:46:09.833Z,73.80
2018-04-25T21:48:37.285Z,72.80
2018-04-25T21:51:04.736Z,73.70
2018-04-25T21:53:32.200Z,74.60
2018-04-25T21:55:59.648Z,75.90
2018-04-25T21:58:27.091Z,76.30
2018-04-25T22:00:54.539Z,76.10
2018-04-25T22:03:21.993Z,75.70
2018-04-25T22:05:50.221Z,76.20
2018-04-25T22:08:17.668Z,76.20
2018-04-25T22:10:45.130Z,77.00
2018-04-25T22:13:12.582Z,78.10
2018-04-25T22:15:40.032Z,78.90
2018-04-25T22:18:07.509Z,78.00
2018-04-25T22:20:34.957Z,78.20
2018-04-25T22:23:03.013Z,76.00
2018-04-25T22:25:30.765Z,76.80
2018-04-25T22:27:58.212Z,77.70
2018-04-25T22:30:25.688Z,77.70
2018-04-25T22:32:53.158Z,77.60
2018-04-25T22:35:20.626Z,77.10
2018-04-25T22:37:48.864Z,76.80
2018-04-25T22:40:16.329Z,76.80
2018-04-25T22:42:43.796Z,77.40
2018-04-25T22:45:11.261Z,76.10
2018-04-25T22:47:38.751Z,75.80
2018-04-25T22:50:07.108Z,76.60
2018-04-25T22:52:34.583Z,76.50
2018-04-25T22:55:02.065Z,76.80
2018-04-25T22:57:30.303Z,76.40
2018-04-25T22:59:57.772Z,76.40
2018-04-25T23:02:25.245Z,76.90
2018-04-25T23:04:53.478Z,77.60
2018-04-25T23:07:20.927Z,77.40
2018-04-25T23:09:48.383Z,75.30
2018-04-25T23:12:15.851Z,73.90
2018-04-25T23:14:43.575Z,72.90
2018-04-25T23:17:11.025Z,73.70
2018-04-25T23:19:38.530Z,73.80
2018-04-25T23:22:05.977Z,74.50
2018-04-25T23:24:34.344Z,74.10
2018-04-25T23:27:01.762Z,73.00
2018-04-25T23:29:29.971Z,73.30
2018-04-25T23:31:57.434Z,73.30
2018-04-25T23:34:24.876Z,74.50
2018-04-25T23:36:52.337Z,74.50
2018-04-25T23:39:19.781Z,73.50
2018-04-25T23:41:47.239Z,73.00
2018-04-25T23:44:14.693Z,73.20
2018-04-25T23:46:42.140Z,72.50
2018-04-25T23:49:09.578Z,73.10
2018-04-25T23:51:37.801Z,74.00
2018-04-25T23:54:05.278Z,74.00
2018-04-25T23:56:32.719Z,72.70
2018-04-25T23:59:00.165Z,72.30
